createdAt,value
2023-07-19T00:00:42.880Z,0.00
2023-07-19T00:01:42.895Z,0.00
2023-07-19T00:02:42.875Z,0.00
2023-07-19T00:03:42.826Z,0.00
2023-07-19T00:04:42.798Z,0.00
2023-07-19T00:05:42.796Z,0.00
2023-07-19T00:06:42.800Z,0.00
2023-07-19T00:07:42.805Z,0.00
2023-07-19T00:08:42.750Z,0.00
2023-07-19T00:09:42.742Z,0.00
2023-07-19T00:10:42.751Z,0.00
2023-07-19T00:11:42.737Z,0.00
2023-07-19T00:12:54.866Z,0.00
2023-07-19T00:13:42.699Z,0.00
2023-07-19T00:14:42.704Z,0.00
2023-07-19T00:15:42.670Z,0.00
2023-07-19T00:16:42.762Z,0.00
2023-07-19T00:17:42.677Z,0.00
2023-07-19T00:18:42.638Z,0.00
2023-07-19T00:19:42.633Z,0.00
2023-07-19T00:20:42.629Z,0.00
2023-07-19T00:21:42.626Z,0.00
2023-07-19T00:22:42.670Z,0.00
2023-07-19T00:23:42.589Z,0.00
2023-07-19T00:24:42.578Z,0.00
2023-07-19T00:25:42.575Z,0.00
2023-07-19T00:26:42.556Z,0.00
2023-07-19T00:27:42.538Z,0.00
2023-07-19T00:28:42.549Z,0.00
2023-07-19T00:29:42.515Z,0.00
2023-07-19T00:30:42.554Z,0.00
2023-07-19T00:31:42.516Z,0.00
2023-07-19T00:32:42.550Z,0.00
2023-07-19T00:33:42.530Z,0.00
2023-07-19T00:34:42.460Z,0.00
2023-07-19T00:35:42.456Z,0.00
2023-07-19T00:36:42.461Z,0.00
2023-07-19T00:37:42.437Z,0.00
2023-07-19T00:38:42.415Z,0.00
2023-07-19T00:39:42.423Z,0.00
2023-07-19T00:40:42.395Z,0.00
2023-07-19T00:41:42.419Z,0.00
2023-07-19T00:42:42.367Z,0.00
2023-07-19T00:43:42.360Z,0.00
2023-07-19T00:44:42.362Z,0.00
2023-07-19T00:45:42.358Z,0.00
2023-07-19T00:46:42.424Z,0.00
2023-07-19T00:47:42.332Z,0.00
2023-07-19T00:48:42.324Z,0.00
2023-07-19T00:49:42.293Z,0.00
2023-07-19T00:50:42.311Z,0.00
2023-07-19T00:51:42.289Z,0.00
2023-07-19T00:52:42.265Z,0.00
2023-07-19T00:53:42.246Z,0.00
2023-07-19T00:54:42.238Z,0.00
2023-07-19T00:55:42.247Z,0.00
2023-07-19T00:56:42.270Z,0.00
2023-07-19T00:57:42.207Z,0.00
2023-07-19T00:58:42.204Z,0.00
2023-07-19T00:59:42.180Z,0.00
2023-07-19T01:00:42.166Z,0.00
2023-07-19T01:01:42.215Z,0.00
2023-07-19T01:02:42.225Z,0.00
2023-07-19T01:03:42.139Z,0.00
2023-07-19T01:04:42.150Z,0.00
2023-07-19T01:05:42.113Z,0.00
2023-07-19T01:06:42.130Z,0.00
2023-07-19T01:07:42.090Z,0.00
2023-07-19T01:08:42.117Z,0.00
2023-07-19T01:09:42.072Z,0.00
2023-07-19T01:10:42.060Z,0.00
2023-07-19T01:11:42.054Z,0.00
2023-07-19T01:12:42.037Z,0.00
2023-07-19T01:13:42.041Z,0.00
2023-07-19T01:14:42.023Z,0.00
2023-07-19T01:15:42.000Z,0.00
2023-07-19T01:16:42.064Z,0.00
2023-07-19T01:17:42.004Z,0.00
2023-07-19T01:18:41.999Z,0.00
2023-07-19T01:19:41.969Z,0.00
2023-07-19T01:20:41.967Z,0.00
2023-07-19T01:21:41.934Z,0.00
2023-07-19T01:22:41.989Z,0.00
2023-07-19T01:23:41.929Z,0.00
2023-07-19T01:24:41.970Z,0.00
2023-07-19T01:25:41.893Z,0.00
2023-07-19T01:26:41.885Z,0.00
2023-07-19T01:27:41.876Z,0.00
2023-07-19T01:28:41.862Z,0.00
2023-07-19T01:29:41.847Z,0.00
2023-07-19T01:30:41.862Z,0.00
2023-07-19T01:31:41.901Z,0.00
2023-07-19T01:32:41.827Z,0.00
2023-07-19T01:33:41.856Z,0.00
2023-07-19T01:34:41.845Z,0.00
2023-07-19T01:35:41.797Z,0.00
2023-07-19T01:36:41.773Z,0.00
2023-07-19T01:37:41.750Z,0.00
2023-07-19T01:38:41.752Z,0.00
2023-07-19T01:39:41.733Z,0.00
2023-07-19T01:40:41.750Z,0.00
2023-07-19T01:41:41.713Z,0.00
2023-07-19T01:42:41.713Z,0.00
2023-07-19T01:43:41.691Z,0.00
2023-07-19T01:44:41.681Z,0.00
2023-07-19T01:45:41.728Z,0.00
2023-07-19T01:46:41.659Z,0.00
2023-07-19T01:47:41.691Z,0.00
2023-07-19T01:48:41.648Z,0.00
2023-07-19T01:49:41.624Z,0.00
2023-07-19T01:50:41.619Z,0.00
2023-07-19T01:51:41.626Z,0.00
2023-07-19T01:52:41.593Z,0.00
2023-07-19T01:53:41.578Z,0.00
2023-07-19T01:54:41.570Z,0.00
2023-07-19T01:55:41.559Z,0.00
2023-07-19T01:56:41.567Z,0.00
2023-07-19T01:57:41.533Z,0.00
2023-07-19T01:58:41.521Z,0.00
2023-07-19T01:59:41.512Z,0.00
2023-07-19T02:00:41.515Z,0.00
2023-07-19T02:01:41.608Z,0.00
2023-07-19T02:02:41.559Z,0.00
2023-07-19T02:03:41.469Z,0.00
2023-07-19T02:04:41.511Z,0.00
2023-07-19T02:05:41.447Z,0.00
2023-07-19T02:06:41.455Z,0.00
2023-07-19T02:07:41.448Z,0.00
2023-07-19T02:08:41.443Z,0.00
2023-07-19T02:09:41.415Z,0.00
2023-07-19T02:10:41.391Z,0.00
2023-07-19T02:11:41.411Z,0.00
2023-07-19T02:12:41.394Z,0.00
2023-07-19T02:13:41.355Z,0.00
2023-07-19T02:14:41.354Z,0.00
2023-07-19T02:15:41.362Z,0.00
2023-07-19T02:16:41.323Z,0.00
2023-07-19T02:17:41.337Z,0.00
2023-07-19T02:18:41.324Z,0.00
2023-07-19T02:19:41.293Z,0.00
2023-07-19T02:20:41.284Z,0.00
2023-07-19T02:21:41.268Z,0.00
2023-07-19T02:22:41.345Z,0.00
2023-07-19T02:23:41.247Z,0.00
2023-07-19T02:24:41.283Z,0.00
2023-07-19T02:25:41.229Z,0.00
2023-07-19T02:26:41.222Z,0.00
2023-07-19T02:27:41.213Z,0.00
2023-07-19T02:28:41.211Z,0.00
2023-07-19T02:29:41.180Z,0.00
2023-07-19T02:30:41.195Z,0.00
2023-07-19T02:31:41.177Z,0.00
2023-07-19T02:32:41.184Z,0.00
2023-07-19T02:33:41.134Z,0.00
2023-07-19T02:34:41.131Z,0.00
2023-07-19T02:35:41.139Z,0.00
2023-07-19T02:36:41.123Z,0.00
2023-07-19T02:37:41.089Z,0.00
2023-07-19T02:38:41.077Z,0.00
2023-07-19T02:39:41.068Z,0.00
2023-07-19T02:40:41.094Z,0.00
2023-07-19T02:41:41.898Z,0.00
2023-07-19T02:42:41.048Z,0.00
2023-07-19T02:43:41.023Z,0.00
2023-07-19T02:44:41.017Z,0.00
2023-07-19T02:45:41.014Z,0.00
2023-07-19T02:46:41.027Z,0.00
2023-07-19T02:47:41.038Z,0.00
2023-07-19T02:48:40.981Z,0.00
2023-07-19T02:49:40.959Z,0.00
2023-07-19T02:50:40.954Z,0.00
2023-07-19T02:51:40.935Z,0.00
2023-07-19T02:52:40.945Z,0.00
2023-07-19T02:53:40.918Z,0.00
2023-07-19T02:54:40.899Z,0.00
2023-07-19T02:55:40.892Z,0.00
2023-07-19T02:56:40.887Z,4.00
2023-07-19T02:57:40.897Z,4.00
2023-07-19T02:58:40.862Z,4.00
2023-07-19T02:59:40.842Z,4.00
2023-07-19T03:00:40.878Z,0.00
2023-07-19T03:01:40.823Z,4.00
2023-07-19T03:02:40.901Z,4.00
2023-07-19T03:03:40.885Z,8.00
2023-07-19T03:04:40.790Z,4.00
2023-07-19T03:05:40.780Z,8.00
2023-07-19T03:06:40.769Z,4.00
2023-07-19T03:07:40.776Z,8.00
2023-07-19T03:08:40.775Z,8.00
2023-07-19T03:09:40.726Z,12.00
2023-07-19T03:10:40.736Z,12.00
2023-07-19T03:11:40.728Z,12.00
2023-07-19T03:12:40.770Z,16.00
2023-07-19T03:13:40.715Z,20.00
2023-07-19T03:14:40.681Z,20.00
2023-07-19T03:15:40.669Z,24.00
2023-07-19T03:16:40.683Z,24.00
2023-07-19T03:20:08.972Z,32.00
2023-07-19T03:20:14.358Z,36.00
2023-07-19T03:21:14.344Z,40.00
2023-07-19T03:22:14.333Z,48.00
2023-07-19T03:23:14.393Z,52.00
2023-07-19T03:24:14.343Z,60.00
2023-07-19T03:25:14.307Z,64.00
2023-07-19T03:26:14.303Z,68.00
2023-07-19T03:27:14.281Z,76.00
2023-07-19T03:28:14.274Z,80.00
2023-07-19T03:29:14.275Z,88.00
2023-07-19T03:30:14.247Z,100.00
2023-07-19T03:31:14.312Z,108.00
2023-07-19T03:32:14.232Z,116.00
2023-07-19T03:33:14.213Z,124.00
2023-07-19T03:34:14.226Z,132.00
2023-07-19T03:35:14.197Z,136.00
2023-07-19T03:36:14.179Z,152.00
2023-07-19T03:37:14.171Z,160.00
2023-07-19T03:38:14.156Z,168.00
2023-07-19T03:39:14.169Z,180.00
2023-07-19T03:40:14.134Z,188.00
2023-07-19T03:41:14.145Z,200.00
2023-07-19T03:42:14.181Z,208.00
2023-07-19T03:43:14.107Z,220.00
2023-07-19T03:44:14.113Z,228.00
2023-07-19T03:45:14.178Z,236.00
2023-07-19T03:46:14.136Z,248.00
2023-07-19T03:47:14.065Z,260.00
2023-07-19T03:48:14.047Z,280.00
2023-07-19T03:49:14.095Z,304.00
2023-07-19T03:50:14.034Z,332.00
2023-07-19T03:51:14.045Z,360.00
2023-07-19T03:52:14.061Z,392.00
2023-07-19T03:53:13.996Z,420.00
2023-07-19T03:54:13.977Z,448.00
2023-07-19T03:55:14.021Z,480.00
2023-07-19T03:56:13.956Z,520.00
2023-07-19T03:57:13.977Z,556.00
2023-07-19T03:58:13.937Z,592.00
2023-07-19T03:59:13.935Z,624.00
2023-07-19T04:00:13.919Z,660.00
2023-07-19T04:01:13.934Z,664.00
2023-07-19T04:02:13.991Z,672.00
2023-07-19T04:03:13.879Z,684.00
2023-07-19T04:04:13.957Z,696.00
2023-07-19T04:05:13.869Z,700.00
2023-07-19T04:06:13.849Z,712.00
2023-07-19T04:07:13.865Z,724.00
2023-07-19T04:08:13.825Z,732.00
2023-07-19T04:09:13.822Z,736.00
2023-07-19T04:10:13.803Z,732.00
2023-07-19T04:11:13.860Z,784.00
2023-07-19T04:12:13.799Z,820.00
2023-07-19T04:13:13.771Z,852.00
2023-07-19T04:14:13.759Z,884.00
2023-07-19T04:15:13.765Z,868.00
2023-07-19T04:16:13.758Z,872.00
2023-07-19T04:17:13.751Z,888.00
2023-07-19T04:18:13.715Z,896.00
2023-07-19T04:19:13.741Z,908.00
2023-07-19T04:20:13.703Z,928.00
2023-07-19T04:21:13.685Z,940.00
2023-07-19T04:22:13.666Z,968.00
2023-07-19T04:23:13.677Z,1012.00
2023-07-19T04:24:13.664Z,1052.00
2023-07-19T04:25:13.633Z,1120.00
2023-07-19T04:26:13.626Z,1196.00
2023-07-19T04:27:13.623Z,1296.00
2023-07-19T04:28:13.598Z,1368.00
2023-07-19T04:29:13.622Z,1356.00
2023-07-19T04:30:13.585Z,1348.00
2023-07-19T04:31:13.567Z,1352.00
2023-07-19T04:32:13.559Z,1352.00
2023-07-19T04:33:13.615Z,1376.00
2023-07-19T04:34:13.556Z,1452.00
2023-07-19T04:35:13.571Z,1440.00
2023-07-19T04:36:13.527Z,1408.00
2023-07-19T04:37:13.514Z,1400.00
2023-07-19T04:38:13.489Z,1412.00
2023-07-19T04:39:13.475Z,1496.00
2023-07-19T04:40:13.486Z,1656.00
2023-07-19T04:41:13.463Z,1848.00
2023-07-19T04:42:13.442Z,2024.00
2023-07-19T04:43:13.433Z,2152.00
2023-07-19T04:44:13.427Z,2288.00
2023-07-19T04:45:13.431Z,2428.00
2023-07-19T04:46:13.432Z,2532.00
2023-07-19T04:47:13.389Z,2636.00
2023-07-19T04:48:13.408Z,2652.00
2023-07-19T04:49:13.369Z,2616.00
2023-07-19T04:50:13.365Z,2532.00
2023-07-19T04:51:13.368Z,2476.00
2023-07-19T04:52:13.327Z,2488.00
2023-07-19T04:53:13.322Z,2508.00
2023-07-19T04:54:13.329Z,2500.00
2023-07-19T04:55:13.294Z,2500.00
2023-07-19T04:56:13.309Z,2548.00
2023-07-19T04:57:13.280Z,2600.00
2023-07-19T04:58:13.264Z,2700.00
2023-07-19T04:59:13.306Z,2760.00
2023-07-19T05:00:13.319Z,2772.00
2023-07-19T05:01:13.279Z,2716.00
2023-07-19T05:02:13.223Z,2592.00
2023-07-19T05:03:13.213Z,2500.00
2023-07-19T05:04:13.204Z,2480.00
2023-07-19T05:05:13.325Z,2528.00
2023-07-19T05:06:13.214Z,2580.00
2023-07-19T05:07:13.171Z,2584.00
2023-07-19T05:08:13.149Z,2568.00
2023-07-19T05:09:13.137Z,2632.00
2023-07-19T05:10:13.128Z,2716.00
2023-07-19T05:11:13.142Z,2824.00
2023-07-19T05:12:13.116Z,2972.00
2023-07-19T05:13:13.103Z,3092.00
2023-07-19T05:14:13.089Z,3148.00
2023-07-19T05:15:13.080Z,3176.00
2023-07-19T05:16:13.095Z,3316.00
2023-07-19T05:17:13.072Z,3428.00
2023-07-19T05:18:13.038Z,3460.00
2023-07-19T05:19:13.050Z,3468.00
2023-07-19T05:20:13.033Z,3544.00
2023-07-19T05:21:13.007Z,3652.00
2023-07-19T05:22:13.037Z,3756.00
2023-07-19T05:23:13.160Z,3908.00
2023-07-19T05:24:12.970Z,4028.00
2023-07-19T05:25:12.966Z,4168.00
2023-07-19T05:26:12.952Z,4308.00
2023-07-19T05:27:12.940Z,4536.00
2023-07-19T05:28:12.982Z,4696.00
2023-07-19T05:29:12.959Z,4652.00
2023-07-19T05:30:12.949Z,4584.00
2023-07-19T05:31:12.953Z,4552.00
2023-07-19T05:32:12.972Z,4656.00
2023-07-19T05:33:12.967Z,4856.00
2023-07-19T05:34:12.876Z,4832.00
2023-07-19T05:35:12.967Z,4776.00
2023-07-19T05:36:12.863Z,4676.00
2023-07-19T05:37:12.897Z,4540.00
2023-07-19T05:38:12.872Z,4480.00
2023-07-19T05:39:12.841Z,4488.00
2023-07-19T05:40:12.816Z,4476.00
2023-07-19T05:41:12.789Z,4384.00
2023-07-19T05:42:12.867Z,4316.00
2023-07-19T05:43:12.787Z,4224.00
2023-07-19T05:44:13.270Z,4032.00
2023-07-19T05:45:12.814Z,3948.00
2023-07-19T05:46:12.858Z,3940.00
2023-07-19T05:47:12.748Z,3984.00
2023-07-19T05:48:12.809Z,4084.00
2023-07-19T05:49:12.847Z,4072.00
2023-07-19T05:50:12.767Z,3820.00
2023-07-19T05:51:12.713Z,3564.00
2023-07-19T05:52:12.864Z,3340.00
2023-07-19T05:53:12.765Z,3276.00
2023-07-19T05:54:12.807Z,3304.00
2023-07-19T05:55:12.661Z,3388.00
2023-07-19T05:56:12.672Z,3364.00
2023-07-19T05:57:12.705Z,3472.00
2023-07-19T05:58:12.673Z,3596.00
2023-07-19T05:59:12.628Z,3704.00
2023-07-19T06:00:20.560Z,3876.00
2023-07-19T06:01:12.606Z,4176.00
2023-07-19T06:02:12.632Z,4604.00
2023-07-19T06:03:12.705Z,5220.00
2023-07-19T06:04:12.695Z,5660.00
2023-07-19T06:05:12.529Z,5156.00
2023-07-19T06:06:12.511Z,4876.00
2023-07-19T06:07:12.497Z,4596.00
2023-07-19T06:08:23.740Z,4420.00
2023-07-19T06:09:12.579Z,4328.00
2023-07-19T06:10:12.459Z,4108.00
2023-07-19T06:11:12.470Z,3964.00
2023-07-19T06:12:12.437Z,4220.00
2023-07-19T06:13:12.429Z,4212.00
2023-07-19T06:14:12.455Z,4072.00
2023-07-19T06:15:15.021Z,3620.00
2023-07-19T06:16:12.413Z,3468.00
2023-07-19T06:17:12.405Z,3620.00
2023-07-19T06:18:12.463Z,3904.00
2023-07-19T06:19:12.398Z,4244.00
2023-07-19T06:20:12.417Z,4424.00
2023-07-19T06:21:12.344Z,4072.00
2023-07-19T06:22:12.377Z,3792.00
2023-07-19T06:23:12.431Z,3776.00
2023-07-19T06:24:12.350Z,3900.00
2023-07-19T06:25:12.322Z,4096.00
2023-07-19T06:26:12.279Z,4132.00
2023-07-19T06:27:12.294Z,4232.00
2023-07-19T06:28:12.259Z,4456.00
2023-07-19T06:29:12.251Z,4864.00
2023-07-19T06:30:12.405Z,5664.00
2023-07-19T06:31:12.292Z,6824.00
2023-07-19T06:32:12.214Z,6600.00
2023-07-19T06:33:12.278Z,5544.00
2023-07-19T06:34:12.192Z,4468.00
2023-07-19T06:35:12.197Z,3724.00
2023-07-19T06:36:12.255Z,3380.00
2023-07-19T06:37:12.166Z,3280.00
2023-07-19T06:38:12.228Z,3536.00
2023-07-19T06:39:12.718Z,3844.00
2023-07-19T06:40:12.135Z,4088.00
2023-07-19T06:41:12.133Z,4172.00
2023-07-19T06:42:12.326Z,4100.00
2023-07-19T06:43:12.091Z,3920.00
2023-07-19T06:44:12.099Z,3744.00
2023-07-19T06:45:12.084Z,3572.00
2023-07-19T06:46:12.064Z,3484.00
2023-07-19T06:47:12.107Z,3484.00
2023-07-19T06:48:12.069Z,3604.00
2023-07-19T06:49:12.024Z,3696.00
2023-07-19T06:50:12.025Z,3728.00
2023-07-19T06:51:12.023Z,3812.00
2023-07-19T06:52:12.024Z,3900.00
2023-07-19T06:53:12.004Z,3968.00
2023-07-19T06:54:15.380Z,4000.00
2023-07-19T06:55:11.961Z,4088.00
2023-07-19T06:56:11.961Z,4248.00
2023-07-19T06:57:12.640Z,4348.00
2023-07-19T06:58:11.995Z,4384.00
2023-07-19T06:59:11.915Z,4432.00
2023-07-19T07:00:11.912Z,4520.00
2023-07-19T07:01:11.963Z,4152.00
2023-07-19T07:02:11.913Z,4024.00
2023-07-19T07:03:11.992Z,3956.00
2023-07-19T07:04:11.942Z,3872.00
2023-07-19T07:05:11.844Z,3736.00
2023-07-19T07:06:11.847Z,3892.00
2023-07-19T07:07:11.838Z,3900.00
2023-07-19T07:08:11.840Z,3912.00
2023-07-19T07:09:11.834Z,3892.00
2023-07-19T07:10:11.792Z,3884.00
2023-07-19T07:11:11.777Z,3952.00
2023-07-19T07:12:11.814Z,4080.00
2023-07-19T07:13:11.838Z,4144.00
2023-07-19T07:14:11.751Z,4172.00
2023-07-19T07:15:11.762Z,4188.00
2023-07-19T07:16:11.722Z,4236.00
2023-07-19T07:17:11.738Z,4436.00
2023-07-19T07:18:11.704Z,4824.00
2023-07-19T07:19:11.712Z,5296.00
2023-07-19T07:20:11.702Z,5980.00
2023-07-19T07:21:11.669Z,6856.00
2023-07-19T07:22:11.654Z,6948.00
2023-07-19T07:23:12.440Z,6256.00
2023-07-19T07:24:11.637Z,5604.00
2023-07-19T07:25:11.639Z,4548.00
2023-07-19T07:26:11.654Z,4220.00
2023-07-19T07:27:11.717Z,4288.00
2023-07-19T07:28:11.604Z,4472.00
2023-07-19T07:29:11.578Z,4404.00
2023-07-19T07:30:11.597Z,4656.00
2023-07-19T07:31:11.581Z,4808.00
2023-07-19T07:32:11.546Z,4988.00
2023-07-19T07:33:11.562Z,5108.00
2023-07-19T07:34:11.523Z,5136.00
2023-07-19T07:35:11.549Z,5244.00
2023-07-19T07:36:11.501Z,5396.00
2023-07-19T07:37:11.517Z,5672.00
2023-07-19T07:38:11.497Z,6252.00
2023-07-19T07:39:11.469Z,6896.00
2023-07-19T07:40:11.456Z,7532.00
2023-07-19T07:41:11.460Z,7840.00
2023-07-19T07:42:11.457Z,7960.00
2023-07-19T07:43:11.444Z,8496.00
2023-07-19T07:44:11.419Z,8648.00
2023-07-19T07:45:11.414Z,9240.00
2023-07-19T07:46:11.457Z,9868.00
2023-07-19T07:47:11.404Z,10072.00
2023-07-19T07:48:11.421Z,9668.00
2023-07-19T07:49:11.399Z,10412.00
2023-07-19T07:50:11.960Z,11228.00
2023-07-19T07:51:11.348Z,12124.00
2023-07-19T07:52:11.354Z,12036.00
2023-07-19T07:53:13.378Z,11724.00
2023-07-19T07:54:11.305Z,11408.00
2023-07-19T07:55:11.307Z,11952.00
2023-07-19T07:56:11.296Z,12484.00
2023-07-19T07:57:11.313Z,12200.00
2023-07-19T07:58:11.266Z,11812.00
2023-07-19T07:59:11.259Z,11884.00
2023-07-19T08:00:11.258Z,11368.00
2023-07-19T08:01:11.270Z,11244.00
2023-07-19T08:02:11.231Z,10788.00
2023-07-19T08:03:11.300Z,11276.00
2023-07-19T08:04:11.226Z,12248.00
2023-07-19T08:05:11.192Z,11976.00
2023-07-19T08:06:11.180Z,12308.00
2023-07-19T08:07:11.193Z,13240.00
2023-07-19T08:08:11.154Z,12972.00
2023-07-19T08:09:11.140Z,13100.00
2023-07-19T08:10:11.148Z,12656.00
2023-07-19T08:11:11.118Z,11532.00
2023-07-19T08:12:11.112Z,11580.00
2023-07-19T08:13:11.120Z,11812.00
2023-07-19T08:14:11.129Z,12548.00
2023-07-19T08:15:11.083Z,12680.00
2023-07-19T08:16:11.069Z,12412.00
2023-07-19T08:17:11.158Z,12516.00
2023-07-19T08:18:11.110Z,12852.00
2023-07-19T08:19:11.055Z,12836.00
2023-07-19T08:20:11.063Z,13032.00
2023-07-19T08:21:16.167Z,13308.00
2023-07-19T08:22:11.014Z,13356.00
2023-07-19T08:23:11.085Z,13520.00
2023-07-19T08:24:11.000Z,13924.00
2023-07-19T08:25:25.034Z,13500.00
2023-07-19T08:26:10.954Z,14120.00
2023-07-19T08:27:10.942Z,14244.00
2023-07-19T08:28:11.029Z,15300.00
2023-07-19T08:29:10.925Z,16092.00
2023-07-19T08:30:10.991Z,15472.00
2023-07-19T08:31:10.925Z,14792.00
2023-07-19T08:32:10.924Z,13948.00
2023-07-19T08:33:10.875Z,14188.00
2023-07-19T08:34:10.888Z,14736.00
2023-07-19T08:35:10.989Z,14752.00
2023-07-19T08:36:10.903Z,14856.00
2023-07-19T08:37:10.863Z,15808.00
2023-07-19T08:38:10.918Z,15660.00
2023-07-19T08:39:10.865Z,14796.00
2023-07-19T08:40:10.803Z,15008.00
2023-07-19T08:41:10.792Z,15596.00
2023-07-19T08:42:10.777Z,15256.00
2023-07-19T08:43:10.763Z,15096.00
2023-07-19T08:44:10.763Z,14744.00
2023-07-19T08:45:10.761Z,13808.00
2023-07-19T08:46:10.756Z,13320.00
2023-07-19T08:47:10.718Z,13884.00
2023-07-19T08:48:10.809Z,14300.00
2023-07-19T08:49:10.698Z,14308.00
2023-07-19T08:50:10.713Z,13504.00
2023-07-19T08:51:10.696Z,12388.00
2023-07-19T08:52:10.666Z,10804.00
2023-07-19T08:53:10.655Z,9512.00
2023-07-19T08:54:10.664Z,8600.00
2023-07-19T08:55:10.669Z,9044.00
2023-07-19T08:56:10.621Z,8880.00
2023-07-19T08:57:10.605Z,8972.00
2023-07-19T08:58:10.602Z,8932.00
2023-07-19T08:59:10.585Z,8744.00
2023-07-19T09:00:10.602Z,9512.00
2023-07-19T09:01:10.593Z,10580.00
2023-07-19T09:02:10.617Z,10508.00
2023-07-19T09:03:10.608Z,11188.00
2023-07-19T09:04:10.595Z,11184.00
2023-07-19T09:05:10.527Z,11500.00
2023-07-19T09:06:10.510Z,10164.00
2023-07-19T09:07:10.516Z,9824.00
2023-07-19T09:08:10.511Z,9712.00
2023-07-19T09:09:10.475Z,10600.00
2023-07-19T09:10:10.544Z,12964.00
2023-07-19T09:11:10.448Z,14008.00
2023-07-19T09:12:10.465Z,13720.00
2023-07-19T09:13:10.444Z,13396.00
2023-07-19T09:14:10.418Z,13676.00
2023-07-19T09:15:10.405Z,14404.00
2023-07-19T09:16:10.390Z,13140.00
2023-07-19T09:17:10.410Z,12436.00
2023-07-19T09:18:10.418Z,11756.00
2023-07-19T09:19:10.371Z,12440.00
2023-07-19T09:20:10.350Z,13008.00
2023-07-19T09:21:10.371Z,13756.00
2023-07-19T09:22:10.339Z,14600.00
2023-07-19T09:23:10.393Z,14788.00
2023-07-19T09:24:10.328Z,14344.00
2023-07-19T09:25:10.395Z,13204.00
2023-07-19T09:26:10.283Z,13108.00
2023-07-19T09:27:10.303Z,13788.00
2023-07-19T09:28:10.269Z,14892.00
2023-07-19T09:29:10.282Z,15380.00
2023-07-19T09:30:10.314Z,15556.00
2023-07-19T09:31:23.969Z,16580.00
2023-07-19T09:32:10.273Z,17088.00
2023-07-19T09:33:10.238Z,17120.00
2023-07-19T09:34:10.194Z,16588.00
2023-07-19T09:35:10.249Z,15156.00
2023-07-19T09:36:10.192Z,13032.00
2023-07-19T09:37:10.192Z,12424.00
2023-07-19T09:38:10.159Z,11340.00
2023-07-19T09:39:10.145Z,11932.00
2023-07-19T09:40:10.144Z,12144.00
2023-07-19T09:41:10.127Z,11892.00
2023-07-19T09:42:10.162Z,12112.00
2023-07-19T09:43:10.101Z,13148.00
2023-07-19T09:44:10.090Z,15208.00
2023-07-19T09:45:10.080Z,13836.00
2023-07-19T09:46:10.164Z,11396.00
2023-07-19T09:47:22.496Z,10844.00
2023-07-19T09:48:10.110Z,11896.00
2023-07-19T09:49:10.035Z,14076.00
2023-07-19T09:50:10.107Z,14144.00
2023-07-19T09:51:10.011Z,14076.00
2023-07-19T09:52:09.999Z,14792.00
2023-07-19T09:53:10.018Z,14964.00
2023-07-19T09:54:09.981Z,13820.00
2023-07-19T09:55:09.974Z,14720.00
2023-07-19T09:56:09.950Z,17600.00
2023-07-19T09:57:09.952Z,16856.00
2023-07-19T09:58:09.930Z,18720.00
2023-07-19T09:59:09.939Z,17856.00
2023-07-19T10:00:09.909Z,15292.00
2023-07-19T10:01:09.925Z,16160.00
2023-07-19T10:02:09.893Z,17376.00
2023-07-19T10:03:10.017Z,18528.00
2023-07-19T10:04:09.864Z,17632.00
2023-07-19T10:05:09.899Z,14036.00
2023-07-19T10:06:09.842Z,11776.00
2023-07-19T10:07:09.828Z,12208.00
2023-07-19T10:08:09.852Z,13300.00
2023-07-19T10:09:09.814Z,15872.00
2023-07-19T10:10:09.798Z,15900.00
2023-07-19T10:11:09.793Z,17504.00
2023-07-19T10:12:09.778Z,19232.00
2023-07-19T10:13:09.794Z,20032.00
2023-07-19T10:14:20.423Z,17088.00
2023-07-19T10:15:09.768Z,15576.00
2023-07-19T10:16:09.735Z,17568.00
2023-07-19T10:17:09.763Z,19520.00
2023-07-19T10:18:09.763Z,20032.00
2023-07-19T10:19:09.703Z,21760.00
2023-07-19T10:20:09.703Z,23488.00
2023-07-19T10:21:09.695Z,19488.00
2023-07-19T10:22:09.678Z,21536.00
2023-07-19T10:23:09.869Z,21824.00
2023-07-19T10:24:09.644Z,19872.00
2023-07-19T10:25:09.653Z,18208.00
2023-07-19T10:26:09.639Z,19872.00
2023-07-19T10:27:09.659Z,22624.00
2023-07-19T10:28:09.683Z,24128.00
2023-07-19T10:29:09.612Z,24288.00
2023-07-19T10:30:09.586Z,20672.00
2023-07-19T10:32:09.565Z,17312.00
2023-07-19T10:33:09.681Z,15068.00
2023-07-19T10:34:09.611Z,14580.00
2023-07-19T10:35:09.533Z,13664.00
2023-07-19T10:36:09.517Z,14664.00
2023-07-19T10:37:09.518Z,16456.00
2023-07-19T10:38:09.505Z,17856.00
2023-07-19T10:39:09.519Z,20128.00
2023-07-19T10:40:09.495Z,21152.00
2023-07-19T10:41:09.465Z,26464.00
2023-07-19T10:42:09.465Z,24704.00
2023-07-19T10:43:09.497Z,27200.00
2023-07-19T10:44:09.540Z,35680.00
2023-07-19T10:45:09.430Z,31872.00
2023-07-19T10:46:09.457Z,27520.00
2023-07-19T10:47:09.417Z,32032.00
2023-07-19T10:48:09.391Z,65344.00
2023-07-19T10:49:09.473Z,24832.00
2023-07-19T10:50:09.381Z,37408.00
2023-07-19T10:51:09.608Z,73696.00
2023-07-19T10:52:09.356Z,64256.00
2023-07-19T10:53:09.332Z,97216.00
2023-07-19T10:54:09.367Z,51968.00
2023-07-19T10:55:27.438Z,19712.00
2023-07-19T10:56:09.304Z,17344.00
2023-07-19T10:57:09.302Z,20000.00
2023-07-19T10:58:09.279Z,20704.00
2023-07-19T10:59:09.310Z,27328.00
2023-07-19T11:00:09.254Z,14756.00
2023-07-19T11:01:09.287Z,15400.00
2023-07-19T11:02:09.268Z,14292.00
2023-07-19T11:03:09.339Z,13136.00
2023-07-19T11:04:09.239Z,11856.00
2023-07-19T11:05:09.214Z,9908.00
2023-07-19T11:06:09.244Z,8912.00
2023-07-19T11:07:09.204Z,8860.00
2023-07-19T11:08:09.207Z,8956.00
2023-07-19T11:09:09.274Z,9332.00
2023-07-19T11:10:09.161Z,9820.00
2023-07-19T11:11:09.143Z,10396.00
2023-07-19T11:12:09.148Z,9304.00
2023-07-19T11:13:09.188Z,8264.00
2023-07-19T11:14:09.151Z,7372.00
2023-07-19T11:15:15.219Z,6808.00
2023-07-19T11:16:09.098Z,6064.00
2023-07-19T11:17:09.117Z,6524.00
2023-07-19T11:18:09.118Z,7472.00
2023-07-19T11:19:09.087Z,8028.00
2023-07-19T11:20:09.041Z,7160.00
2023-07-19T11:21:09.039Z,6100.00
2023-07-19T11:22:09.022Z,6984.00
2023-07-19T11:23:09.102Z,8568.00
2023-07-19T11:24:09.035Z,10380.00
2023-07-19T11:25:09.026Z,12808.00
2023-07-19T11:26:08.993Z,13536.00
2023-07-19T11:27:09.019Z,12984.00
2023-07-19T11:28:08.960Z,13948.00
2023-07-19T11:29:08.947Z,17440.00
2023-07-19T11:30:08.979Z,18272.00
2023-07-19T11:31:08.970Z,19776.00
2023-07-19T11:32:11.274Z,23648.00
2023-07-19T11:33:08.921Z,25280.00
2023-07-19T11:34:08.925Z,20320.00
2023-07-19T11:35:08.894Z,14792.00
2023-07-19T11:36:08.936Z,15452.00
2023-07-19T11:37:08.866Z,19008.00
2023-07-19T11:38:08.853Z,19520.00
2023-07-19T11:39:08.840Z,16960.00
2023-07-19T11:40:08.830Z,16632.00
2023-07-19T11:41:08.841Z,19424.00
2023-07-19T11:42:08.804Z,16644.00
2023-07-19T11:43:08.798Z,15744.00
2023-07-19T11:44:08.789Z,15500.00
2023-07-19T11:45:08.803Z,15684.00
2023-07-19T11:46:08.777Z,18688.00
2023-07-19T11:47:08.786Z,37120.00
2023-07-19T11:48:08.772Z,25696.00
2023-07-19T11:49:08.730Z,33376.00
2023-07-19T11:50:08.743Z,24448.00
2023-07-19T11:51:08.739Z,51648.00
2023-07-19T11:52:08.700Z,32320.00
2023-07-19T11:53:08.683Z,65920.00
2023-07-19T11:54:08.680Z,63744.00
2023-07-19T11:55:08.664Z,97536.00
2023-07-19T11:56:11.610Z,92800.00
2023-07-19T11:57:09.469Z,36480.00
2023-07-19T11:58:08.633Z,22752.00
2023-07-19T11:59:08.635Z,24480.00
2023-07-19T12:00:08.629Z,21664.00
2023-07-19T12:01:08.664Z,21472.00
2023-07-19T12:02:08.587Z,31392.00
2023-07-19T12:03:08.722Z,64544.00
2023-07-19T12:04:08.600Z,77536.00
2023-07-19T12:05:08.575Z,33568.00
2023-07-19T12:06:08.587Z,36128.00
2023-07-19T12:07:08.542Z,50848.00
2023-07-19T12:08:08.524Z,22752.00
2023-07-19T12:09:08.515Z,20960.00
2023-07-19T12:10:08.505Z,48704.00
2023-07-19T12:11:08.488Z,43072.00
2023-07-19T12:12:08.505Z,31360.00
2023-07-19T12:13:08.470Z,33568.00
2023-07-19T12:14:08.477Z,45536.00
2023-07-19T12:15:08.461Z,85472.00
2023-07-19T12:16:08.436Z,88320.00
2023-07-19T12:17:08.496Z,38080.00
2023-07-19T12:18:08.504Z,25760.00
2023-07-19T12:19:08.407Z,19712.00
2023-07-19T12:20:08.393Z,19520.00
2023-07-19T12:21:08.383Z,59488.00